Main page
Satellite images 15-day forecastsClimateMarine weather Cyclones Lightning AirportsFAQ Newsletter About
Weather : Europe Africa North America South America Asia Australia-Oceania Others
Languages Contact

Birmingham, England

latitude: 52-27N, longitude: 001-44W, elevation: 99 m


METAR: EGBB 301550Z 28010KT 250V310 9999 VCSH BKN025 BKN031 17/11 Q1015
short-TAF: out of date (50994 hours)
long-TAF: EGBB 301057Z 3012/3112 27012KT 9999 SCT025 PROB40 TEMPO 3102/3107 5000 -RADZ BKN012

Time: 17:11 (16:11 UTC)

Current weather observation

The report was made 21 minutes ago, at 15:50 UTC  
Wind 10 kt from the West, varying between West/Southwest and Northwest
Temperature 17°C
Humidity 68%
Pressure 1015 hPa
Visibility 10 km or more
Broken clouds at a height of 2500 ft
Broken clouds at a height of 3100 ft
showers in vicinity

Change units

Forecast

The report was made 4 hours and 56 minutes ago, at 11:15 UTC  
Forecast valid from 30 at 12 UTC to 31 at 12 UTC
Wind 12 kt from the West
Visibility 10 km or more
Scattered clouds at a height of 2500 ft
Probability 40% :
Temporary
from 31 at 02 UTC to 31 at 07 UTC
Visibility 5000 m
Broken clouds at a height of 1200 ft
light rain drizzle
The information on this site is subject to a disclaimer
Weather : Europe Africa North America South America Asia Australia-Oceania Others
Satellite images 15-day forecastsClimateMarine weather Cyclones Lightning AirportsFAQ Languages Contact Newsletter About